createdAt,value
2018-05-15T00:01:05.000Z,3.77
2018-05-15T00:03:34.588Z,3.60
2018-05-15T00:06:03.493Z,3.47
2018-05-15T00:08:33.702Z,3.80
2018-05-15T00:11:02.016Z,3.70
2018-05-15T00:13:30.605Z,3.67
2018-05-15T00:16:00.442Z,3.57
2018-05-15T00:18:28.800Z,3.93
2018-05-15T00:20:57.199Z,3.80
2018-05-15T00:23:26.487Z,4.13
2018-05-15T00:25:55.224Z,3.63
2018-05-15T00:28:23.616Z,3.97
2018-05-15T00:30:51.955Z,3.80
2018-05-15T00:33:22.342Z,4.00
2018-05-15T00:35:52.381Z,3.60
2018-05-15T00:38:20.725Z,3.60
2018-05-15T00:40:49.846Z,3.80
2018-05-15T00:43:19.151Z,3.63
2018-05-15T00:45:49.061Z,3.87
2018-05-15T00:48:18.742Z,3.60
2018-05-15T00:50:47.564Z,4.00
2018-05-15T00:53:16.733Z,3.70
2018-05-15T00:55:45.060Z,4.20
2018-05-15T00:58:15.319Z,3.47
2018-05-15T01:00:44.528Z,3.73
2018-05-15T01:03:13.200Z,4.10
2018-05-15T01:05:41.596Z,4.00
2018-05-15T01:08:10.841Z,3.40
2018-05-15T01:10:39.184Z,3.47
2018-05-15T01:13:07.549Z,4.10
2018-05-15T01:15:36.550Z,4.07
2018-05-15T01:18:05.141Z,4.07
2018-05-15T01:20:34.378Z,3.70
2018-05-15T01:23:03.012Z,4.00
2018-05-15T01:25:32.181Z,3.97
2018-05-15T01:28:01.506Z,3.60
2018-05-15T01:30:29.858Z,3.73
2018-05-15T01:32:58.497Z,3.80
2018-05-15T01:35:27.735Z,4.30
2018-05-15T01:37:56.139Z,3.73
2018-05-15T01:40:25.394Z,3.87
2018-05-15T01:42:55.514Z,4.33
2018-05-15T01:45:23.864Z,3.80
2018-05-15T01:47:52.298Z,4.00
2018-05-15T01:50:21.088Z,4.23
2018-05-15T01:52:49.441Z,3.97
2018-05-15T01:55:17.834Z,3.90
2018-05-15T01:57:46.252Z,4.13
2018-05-15T02:00:16.142Z,3.83
2018-05-15T02:02:46.423Z,4.03
2018-05-15T02:05:15.525Z,4.00
2018-05-15T02:07:43.856Z,3.83
2018-05-15T02:10:13.008Z,4.17
2018-05-15T02:12:41.385Z,4.07
2018-05-15T02:15:09.739Z,3.77
2018-05-15T02:17:39.034Z,4.07
2018-05-15T02:20:08.247Z,4.40
2018-05-15T02:22:37.708Z,4.00
2018-05-15T02:25:06.074Z,3.87
2018-05-15T02:27:35.186Z,4.40
2018-05-15T02:30:05.463Z,4.07
2018-05-15T02:32:34.538Z,4.23
2018-05-15T02:35:03.837Z,4.40
2018-05-15T02:37:32.625Z,4.67
2018-05-15T02:40:03.233Z,3.97
2018-05-15T02:42:32.999Z,4.20
2018-05-15T02:45:01.351Z,4.10
2018-05-15T02:47:29.724Z,4.00
2018-05-15T02:49:58.469Z,4.20
2018-05-15T02:52:28.542Z,4.20
2018-05-15T02:54:57.033Z,4.40
2018-05-15T02:57:26.785Z,4.20
2018-05-15T02:59:55.694Z,4.43
2018-05-15T03:02:24.132Z,4.20
2018-05-15T03:04:53.388Z,4.27
2018-05-15T03:07:21.753Z,4.20
2018-05-15T03:09:51.034Z,4.40
2018-05-15T03:12:19.716Z,4.43
2018-05-15T03:14:50.167Z,4.23
2018-05-15T03:17:20.306Z,4.10
2018-05-15T03:19:49.606Z,4.40
2018-05-15T03:22:18.899Z,4.17
2018-05-15T03:24:47.682Z,4.93
2018-05-15T03:27:17.774Z,4.00
2018-05-15T03:29:47.118Z,4.40
2018-05-15T03:32:16.430Z,4.47
2018-05-15T03:34:44.816Z,4.53
2018-05-15T03:37:13.231Z,4.50
2018-05-15T03:39:42.531Z,4.13
2018-05-15T03:42:11.395Z,4.63
2018-05-15T03:44:39.760Z,4.30
2018-05-15T03:47:08.098Z,4.47
2018-05-15T03:49:37.545Z,4.40
2018-05-15T03:52:05.878Z,4.10
2018-05-15T03:54:34.371Z,4.80
2018-05-15T03:57:03.817Z,4.67
2018-05-15T03:59:32.178Z,4.77
2018-05-15T04:02:15.217Z,4.00
2018-05-15T04:04:56.732Z,4.33
2018-05-15T04:07:37.733Z,4.50
2018-05-15T04:10:06.838Z,4.77
2018-05-15T04:12:35.177Z,4.67
2018-05-15T04:15:04.519Z,4.53
2018-05-15T04:17:32.944Z,4.77
2018-05-15T04:20:01.292Z,4.20
2018-05-15T04:22:30.550Z,5.13
2018-05-15T04:24:58.917Z,4.47
2018-05-15T04:27:27.287Z,4.90
2018-05-15T04:29:55.895Z,5.00
2018-05-15T04:32:24.276Z,4.37
2018-05-15T04:34:54.376Z,5.13
2018-05-15T04:37:22.724Z,4.80
2018-05-15T04:39:51.866Z,5.70
2018-05-15T04:42:20.235Z,5.07
2018-05-15T04:44:49.525Z,5.00
2018-05-15T04:47:18.391Z,4.70
2018-05-15T04:49:49.275Z,4.67
2018-05-15T04:52:18.120Z,4.83
2018-05-15T04:54:48.812Z,4.70
2018-05-15T04:57:18.569Z,4.80
2018-05-15T04:59:47.727Z,4.87
2018-05-15T05:02:16.141Z,4.80
2018-05-15T05:04:44.497Z,4.87
2018-05-15T05:07:12.826Z,4.73
2018-05-15T05:09:42.067Z,5.00
2018-05-15T05:12:12.040Z,5.40
2018-05-15T05:14:41.732Z,4.70
2018-05-15T05:17:10.192Z,4.77
2018-05-15T05:19:39.280Z,4.60
2018-05-15T05:22:07.641Z,5.03
2018-05-15T05:24:35.997Z,5.77
2018-05-15T05:27:05.317Z,4.90
2018-05-15T05:29:34.464Z,5.10
2018-05-15T05:32:04.630Z,5.40
2018-05-15T05:34:34.157Z,4.63
2018-05-15T05:37:03.601Z,4.73
2018-05-15T05:39:32.676Z,4.47
2018-05-15T05:42:03.126Z,5.60
2018-05-15T05:44:31.532Z,5.23
2018-05-15T05:47:01.333Z,5.30
2018-05-15T05:49:30.621Z,4.93
2018-05-15T05:51:59.295Z,5.00
2018-05-15T05:54:28.452Z,5.03
2018-05-15T05:56:57.713Z,4.93
2018-05-15T05:59:26.804Z,5.33
2018-05-15T06:01:56.197Z,4.97
2018-05-15T06:04:26.105Z,5.47
2018-05-15T06:06:55.446Z,5.20
2018-05-15T06:09:25.734Z,5.03
2018-05-15T06:11:55.568Z,4.90
2018-05-15T06:14:24.663Z,5.10
2018-05-15T06:16:53.935Z,5.10
2018-05-15T06:19:25.710Z,4.97
2018-05-15T06:21:55.797Z,4.90
2018-05-15T06:24:25.544Z,4.60
2018-05-15T06:26:53.963Z,5.40
2018-05-15T06:29:24.337Z,4.80
2018-05-15T06:31:53.317Z,5.23
2018-05-15T06:34:23.349Z,5.43
2018-05-15T06:36:52.070Z,5.47
2018-05-15T06:39:21.665Z,4.60
2018-05-15T06:41:52.084Z,4.90
2018-05-15T06:44:20.813Z,4.87
2018-05-15T06:46:53.364Z,5.40
2018-05-15T06:49:26.624Z,5.37
2018-05-15T06:51:56.037Z,5.27
2018-05-15T06:54:24.712Z,4.93
2018-05-15T06:56:53.899Z,4.70
2018-05-15T06:59:22.501Z,5.20
2018-05-15T07:01:52.740Z,5.30
2018-05-15T07:04:21.134Z,4.83
2018-05-15T07:06:49.779Z,4.97
2018-05-15T07:09:19.038Z,5.10
2018-05-15T07:11:48.948Z,4.87
2018-05-15T07:14:18.296Z,5.17
2018-05-15T07:16:47.446Z,5.77
2018-05-15T07:19:19.199Z,5.10
2018-05-15T07:21:50.398Z,5.20
2018-05-15T07:24:19.952Z,4.77
2018-05-15T07:26:48.857Z,4.77
2018-05-15T07:29:18.506Z,4.87
2018-05-15T07:31:46.877Z,5.17
2018-05-15T07:34:19.446Z,4.70
2018-05-15T07:36:50.320Z,4.40
2018-05-15T07:39:20.842Z,4.90
2018-05-15T07:41:49.268Z,4.63
2018-05-15T07:44:18.817Z,4.53
2018-05-15T07:46:48.615Z,4.87
2018-05-15T07:49:16.990Z,4.80
2018-05-15T07:51:45.439Z,4.57
2018-05-15T07:54:14.685Z,4.83
2018-05-15T07:56:43.848Z,4.70
2018-05-15T07:59:14.524Z,4.87
2018-05-15T08:01:45.900Z,4.30
2018-05-15T08:04:15.110Z,3.67
2018-05-15T08:06:44.515Z,3.97
2018-05-15T08:09:13.212Z,4.20
2018-05-15T08:11:42.819Z,3.80
2018-05-15T08:14:12.588Z,3.90
2018-05-15T08:16:40.981Z,3.80
2018-05-15T08:19:10.036Z,7.37
2018-05-15T08:21:39.420Z,5.07
2018-05-15T08:24:08.812Z,4.30
2018-05-15T08:26:37.217Z,10.47
2018-05-15T08:29:06.490Z,4.27
2018-05-15T08:31:35.789Z,4.60
2018-05-15T08:34:04.917Z,4.27
2018-05-15T08:36:33.316Z,8.40
2018-05-15T08:39:01.668Z,7.60
2018-05-15T08:41:32.010Z,10.40
2018-05-15T08:44:01.829Z,6.13
2018-05-15T08:46:30.678Z,4.80
2018-05-15T08:48:59.025Z,4.30
2018-05-15T08:51:27.907Z,6.87
2018-05-15T08:53:57.140Z,4.50
2018-05-15T08:56:27.045Z,4.93
2018-05-15T08:58:56.796Z,4.33
2018-05-15T09:01:25.159Z,4.73
2018-05-15T09:03:54.414Z,4.50
2018-05-15T09:06:23.074Z,4.40
2018-05-15T09:08:51.721Z,4.47
2018-05-15T09:11:20.940Z,4.90
2018-05-15T09:13:50.441Z,4.83
2018-05-15T09:16:20.208Z,4.63
2018-05-15T09:18:49.817Z,5.30
2018-05-15T09:21:18.258Z,5.17
2018-05-15T09:23:46.867Z,4.73
2018-05-15T09:26:15.261Z,4.90
2018-05-15T09:28:44.733Z,4.80
2018-05-15T09:31:13.822Z,5.10
2018-05-15T09:33:43.084Z,4.83
2018-05-15T09:36:11.706Z,4.77
2018-05-15T09:38:40.032Z,4.97
2018-05-15T09:41:08.832Z,4.67
2018-05-15T09:43:54.983Z,4.90
2018-05-15T09:46:23.969Z,4.87
2018-05-15T09:48:53.132Z,4.70
2018-05-15T09:51:21.960Z,5.00
2018-05-15T09:53:51.266Z,4.73
2018-05-15T09:56:19.637Z,4.30
2018-05-15T09:58:48.010Z,4.77
2018-05-15T10:01:17.166Z,4.70
2018-05-15T10:03:46.485Z,4.33
2018-05-15T10:06:15.741Z,4.57
2018-05-15T10:08:45.446Z,4.53
2018-05-15T10:11:15.325Z,4.90
2018-05-15T10:13:43.801Z,4.77
2018-05-15T10:16:12.159Z,4.37
2018-05-15T10:18:41.927Z,4.27
2018-05-15T10:21:10.322Z,4.00
2018-05-15T10:23:39.414Z,4.60
2018-05-15T10:26:08.006Z,4.27
2018-05-15T10:28:36.731Z,4.67
2018-05-15T10:31:05.080Z,4.80
2018-05-15T10:33:33.608Z,4.50
2018-05-15T10:36:02.214Z,4.10
2018-05-15T10:38:31.298Z,4.53
2018-05-15T10:40:59.651Z,4.70
2018-05-15T10:43:28.015Z,4.33
2018-05-15T10:45:57.500Z,4.53
2018-05-15T10:48:25.872Z,4.43
2018-05-15T10:50:54.229Z,4.57
2018-05-15T10:53:23.064Z,4.10
2018-05-15T10:55:51.520Z,4.13
2018-05-15T10:58:20.736Z,4.40
2018-05-15T11:00:49.474Z,3.90
2018-05-15T11:03:19.314Z,4.63
2018-05-15T11:05:48.531Z,4.40
2018-05-15T11:08:17.777Z,4.27
2018-05-15T11:10:46.489Z,4.13
2018-05-15T11:13:16.563Z,4.60
2018-05-15T11:15:49.162Z,4.07
2018-05-15T11:18:31.096Z,4.00
2018-05-15T11:21:12.806Z,4.30
2018-05-15T11:23:54.320Z,4.70
2018-05-15T11:26:23.803Z,4.30
2018-05-15T11:28:54.041Z,4.57
2018-05-15T11:31:22.786Z,4.27
2018-05-15T11:33:52.184Z,4.00
2018-05-15T11:36:21.279Z,4.13
2018-05-15T11:38:49.622Z,4.47
2018-05-15T11:41:18.774Z,4.80
2018-05-15T11:43:47.323Z,4.13
2018-05-15T11:46:16.601Z,4.10
2018-05-15T11:48:46.135Z,4.40
2018-05-15T11:51:14.528Z,4.33
2018-05-15T11:53:42.677Z,3.97
2018-05-15T11:56:11.029Z,4.17
2018-05-15T11:58:39.357Z,4.30
2018-05-15T12:01:07.744Z,4.23
2018-05-15T12:03:36.827Z,4.07
2018-05-15T12:06:05.192Z,3.93
2018-05-15T12:08:34.444Z,4.10
2018-05-15T12:11:02.807Z,4.40
2018-05-15T12:13:31.165Z,4.13
2018-05-15T12:15:59.552Z,4.37
2018-05-15T12:18:28.099Z,4.43
2018-05-15T12:20:57.001Z,4.30
2018-05-15T12:23:26.693Z,4.20
2018-05-15T12:25:55.049Z,4.30
2018-05-15T12:28:23.386Z,4.47
2018-05-15T12:30:51.751Z,4.20
2018-05-15T12:33:21.081Z,4.37
2018-05-15T12:35:49.519Z,4.30
2018-05-15T12:38:21.861Z,4.03
2018-05-15T12:40:50.188Z,4.37
2018-05-15T12:43:18.948Z,4.33
2018-05-15T12:45:47.923Z,3.97
2018-05-15T12:48:16.352Z,4.30
2018-05-15T12:50:45.482Z,4.20
2018-05-15T12:53:13.885Z,4.20
2018-05-15T12:55:42.217Z,4.37
2018-05-15T12:58:10.593Z,4.30
2018-05-15T13:00:38.945Z,4.47
2018-05-15T13:03:07.322Z,4.53
2018-05-15T13:05:36.049Z,5.20
2018-05-15T13:08:04.637Z,4.93
2018-05-15T13:10:34.282Z,5.10
2018-05-15T13:13:02.675Z,4.93
2018-05-15T13:15:31.021Z,4.80
2018-05-15T13:18:00.116Z,4.83
2018-05-15T13:20:28.496Z,4.73
2018-05-15T13:22:57.772Z,4.97
2018-05-15T13:25:26.103Z,4.77
2018-05-15T13:27:54.514Z,5.10
2018-05-15T13:30:23.135Z,4.83
2018-05-15T13:32:51.530Z,4.80
2018-05-15T13:35:21.616Z,4.70
2018-05-15T13:37:53.044Z,4.93
2018-05-15T13:40:21.407Z,4.87
2018-05-15T13:42:49.738Z,4.50
2018-05-15T13:45:18.154Z,4.60
2018-05-15T13:47:46.486Z,4.40
2018-05-15T13:50:19.693Z,4.50
2018-05-15T13:52:48.958Z,4.27
2018-05-15T13:55:17.320Z,4.10
2018-05-15T13:57:46.514Z,4.33
2018-05-15T14:00:15.200Z,4.60
2018-05-15T14:02:43.527Z,4.93
2018-05-15T14:05:11.895Z,4.47
2018-05-15T14:07:40.390Z,4.63
2018-05-15T14:10:09.745Z,4.47
2018-05-15T14:12:38.699Z,4.60
2018-05-15T14:15:07.061Z,4.57
2018-05-15T14:17:35.405Z,4.30
2018-05-15T14:20:03.763Z,4.37
2018-05-15T14:22:32.105Z,4.67
2018-05-15T14:25:00.462Z,3.97
2018-05-15T14:27:28.787Z,4.00
2018-05-15T14:29:57.974Z,4.53
2018-05-15T14:32:26.301Z,4.60
2018-05-15T14:34:54.672Z,4.23
2018-05-15T14:37:23.633Z,4.10
2018-05-15T14:39:51.997Z,4.00
2018-05-15T14:42:31.980Z,4.37
2018-05-15T14:45:00.333Z,4.73
2018-05-15T14:47:30.440Z,4.13
2018-05-15T14:49:58.842Z,4.07
2018-05-15T14:52:28.022Z,4.00
2018-05-15T14:54:56.368Z,4.10
2018-05-15T14:57:25.645Z,4.13
2018-05-15T14:59:54.840Z,4.03
2018-05-15T15:02:23.172Z,3.87
2018-05-15T15:04:52.465Z,3.97
2018-05-15T15:07:20.822Z,3.90
2018-05-15T15:09:49.197Z,4.40
2018-05-15T15:12:17.553Z,4.03
2018-05-15T15:14:45.884Z,3.90
2018-05-15T15:17:14.260Z,3.73
2018-05-15T15:19:43.873Z,3.50
2018-05-15T15:22:12.846Z,3.97
2018-05-15T15:24:41.177Z,3.60
2018-05-15T15:27:11.280Z,3.80
2018-05-15T15:29:39.653Z,4.30
2018-05-15T15:32:08.348Z,3.80
2018-05-15T15:34:37.290Z,4.20
2018-05-15T15:37:05.677Z,4.10
2018-05-15T15:39:34.246Z,4.37
2018-05-15T15:42:02.595Z,4.53
2018-05-15T15:44:30.969Z,4.20
2018-05-15T15:47:00.254Z,4.40
2018-05-15T15:49:28.588Z,4.60
2018-05-15T15:51:58.242Z,4.60
2018-05-15T15:54:27.407Z,4.40
2018-05-15T15:56:56.366Z,4.83
2018-05-15T15:59:24.768Z,4.70
2018-05-15T16:01:53.171Z,5.07
2018-05-15T16:04:21.779Z,4.53
2018-05-15T16:06:51.477Z,4.50
2018-05-15T16:09:22.112Z,4.83
2018-05-15T16:11:56.653Z,4.70
2018-05-15T16:14:26.706Z,4.60
2018-05-15T16:16:55.187Z,4.60
2018-05-15T16:19:23.888Z,4.53
2018-05-15T16:21:52.285Z,4.30
2018-05-15T16:24:20.621Z,4.30
2018-05-15T16:26:49.006Z,4.70
2018-05-15T16:29:17.328Z,4.53
2018-05-15T16:31:46.437Z,4.10
2018-05-15T16:34:14.771Z,4.67
2018-05-15T16:36:44.368Z,4.20
2018-05-15T16:39:12.762Z,5.17
2018-05-15T16:41:41.979Z,4.70
2018-05-15T16:44:10.808Z,4.40
2018-05-15T16:46:39.226Z,4.97
2018-05-15T16:49:08.366Z,4.70
2018-05-15T16:51:37.627Z,4.57
2018-05-15T16:54:05.999Z,4.77
2018-05-15T16:56:34.367Z,4.60
2018-05-15T16:59:02.734Z,4.60
2018-05-15T17:01:32.833Z,4.37
2018-05-15T17:04:02.965Z,5.10
2018-05-15T17:06:31.289Z,4.90
2018-05-15T17:08:59.943Z,4.47
2018-05-15T17:11:28.324Z,5.30
2018-05-15T17:13:57.580Z,5.27
2018-05-15T17:16:26.037Z,4.37
2018-05-15T17:18:55.226Z,3.20
2018-05-15T17:21:23.557Z,3.20
2018-05-15T17:23:51.921Z,2.80
2018-05-15T17:26:20.249Z,2.57
2018-05-15T17:28:49.443Z,2.73
2018-05-15T17:31:18.134Z,2.70
2018-05-15T17:33:46.633Z,3.53
2018-05-15T17:36:14.972Z,2.30
2018-05-15T17:38:43.363Z,2.33
2018-05-15T17:41:11.690Z,2.50
2018-05-15T17:43:40.862Z,2.20
2018-05-15T17:46:09.185Z,2.70
2018-05-15T17:48:37.724Z,2.30
2018-05-15T17:51:06.914Z,2.33
2018-05-15T17:53:35.384Z,2.20
2018-05-15T17:56:03.744Z,2.30
2018-05-15T17:58:32.887Z,2.07
2018-05-15T18:01:01.234Z,2.40
2018-05-15T18:03:30.367Z,2.80
2018-05-15T18:05:58.735Z,2.30
2018-05-15T18:08:27.161Z,2.40
2018-05-15T18:10:56.288Z,2.40
2018-05-15T18:13:24.641Z,2.40
2018-05-15T18:15:52.977Z,2.50
2018-05-15T18:18:21.329Z,2.53
2018-05-15T18:20:49.657Z,2.50
2018-05-15T18:23:18.927Z,2.20
2018-05-15T18:25:47.255Z,2.20
2018-05-15T18:28:17.012Z,2.23
2018-05-15T18:30:45.350Z,2.60
2018-05-15T18:33:14.630Z,2.37
2018-05-15T18:35:43.568Z,2.37
2018-05-15T18:38:12.694Z,2.60
2018-05-15T18:40:41.017Z,2.50
2018-05-15T18:43:10.721Z,2.30
2018-05-15T18:45:39.433Z,2.03
2018-05-15T18:48:07.806Z,2.50
2018-05-15T18:50:36.145Z,2.93
2018-05-15T18:53:05.052Z,2.53
2018-05-15T18:55:34.054Z,2.37
2018-05-15T18:58:02.451Z,2.23
2018-05-15T19:00:30.794Z,2.30
2018-05-15T19:03:00.457Z,2.50
2018-05-15T19:05:28.828Z,3.73
2018-05-15T19:07:58.034Z,4.67
2018-05-15T19:10:26.368Z,3.37
2018-05-15T19:12:54.987Z,2.40
2018-05-15T19:15:24.094Z,2.60
2018-05-15T19:17:52.893Z,2.53
2018-05-15T19:20:22.136Z,2.70
2018-05-15T19:22:50.487Z,2.97
2018-05-15T19:25:18.825Z,2.60
2018-05-15T19:27:47.214Z,2.70
2018-05-15T19:30:15.585Z,2.60
2018-05-15T19:32:44.984Z,2.60
2018-05-15T19:35:19.205Z,2.63
2018-05-15T19:37:47.949Z,2.57
2018-05-15T19:40:17.292Z,2.87
2018-05-15T19:42:46.441Z,2.90
2018-05-15T19:45:16.302Z,3.03
2018-05-15T19:47:44.910Z,3.43
2018-05-15T19:50:13.285Z,3.30
2018-05-15T19:52:41.651Z,2.97
2018-05-15T19:55:10.048Z,3.47
2018-05-15T19:57:38.382Z,2.80
2018-05-15T20:00:06.737Z,3.03
2018-05-15T20:02:35.150Z,3.40
2018-05-15T20:05:04.885Z,3.23
2018-05-15T20:07:33.511Z,3.03
2018-05-15T20:10:01.902Z,3.30
2018-05-15T20:12:30.273Z,3.17
2018-05-15T20:14:59.582Z,3.20
2018-05-15T20:17:27.916Z,2.93
2018-05-15T20:19:56.669Z,3.30
2018-05-15T20:22:24.981Z,2.90
2018-05-15T20:24:53.343Z,2.93
2018-05-15T20:27:21.721Z,3.33
2018-05-15T20:29:51.311Z,3.87
2018-05-15T20:32:19.894Z,3.57
2018-05-15T20:34:48.274Z,3.57
2018-05-15T20:37:16.626Z,3.77
2018-05-15T20:39:45.149Z,3.10
2018-05-15T20:42:13.510Z,3.30
2018-05-15T20:44:42.069Z,3.40
2018-05-15T20:47:10.835Z,3.53
2018-05-15T20:49:39.234Z,2.97
2018-05-15T20:52:08.356Z,3.37
2018-05-15T20:54:36.653Z,3.30
2018-05-15T20:57:05.848Z,3.20
2018-05-15T20:59:34.231Z,3.47
2018-05-15T21:02:02.617Z,3.40
2018-05-15T21:04:30.965Z,3.77
2018-05-15T21:06:59.288Z,3.90
2018-05-15T21:09:27.644Z,3.90
2018-05-15T21:11:56.774Z,4.10
2018-05-15T21:14:25.928Z,3.80
2018-05-15T21:16:54.332Z,4.00
2018-05-15T21:19:22.695Z,4.10
2018-05-15T21:21:51.351Z,3.97
2018-05-15T21:24:19.636Z,4.83
2018-05-15T21:26:47.972Z,4.00
2018-05-15T21:29:16.369Z,3.87
2018-05-15T21:31:44.701Z,4.00
2018-05-15T21:34:13.833Z,4.60
2018-05-15T21:36:42.761Z,4.10
2018-05-15T21:39:11.115Z,4.10
2018-05-15T21:41:39.443Z,4.20
2018-05-15T21:44:07.830Z,4.03
2018-05-15T21:46:36.162Z,4.40
2018-05-15T21:49:04.850Z,4.40
2018-05-15T21:51:34.091Z,4.27
2018-05-15T21:54:02.553Z,4.50
2018-05-15T21:56:30.882Z,4.63
2018-05-15T21:58:59.248Z,4.50
2018-05-15T22:01:27.979Z,4.63
2018-05-15T22:03:56.356Z,4.87
2018-05-15T22:06:24.915Z,4.93
2018-05-15T22:08:55.022Z,5.33
2018-05-15T22:11:22.822Z,4.57
2018-05-15T22:14:02.565Z,4.33
2018-05-15T22:16:49.857Z,4.27
2018-05-15T22:19:35.982Z,4.20
2018-05-15T22:22:14.628Z,4.17
2018-05-15T22:24:42.707Z,4.77
2018-05-15T22:27:11.041Z,4.50
2018-05-15T22:29:39.385Z,4.20
2018-05-15T22:32:09.070Z,4.33
2018-05-15T22:34:37.437Z,4.60
2018-05-15T22:37:06.365Z,4.50
2018-05-15T22:39:35.428Z,4.47
2018-05-15T22:42:04.564Z,4.47
2018-05-15T22:44:33.844Z,4.90
2018-05-15T22:47:02.182Z,5.17
2018-05-15T22:49:31.139Z,4.80
2018-05-15T22:51:59.486Z,5.17
2018-05-15T22:54:27.868Z,6.40
2018-05-15T22:56:56.230Z,6.43
2018-05-15T22:59:24.767Z,6.60
2018-05-15T23:01:53.917Z,6.93
2018-05-15T23:04:22.644Z,6.10
2018-05-15T23:06:50.968Z,5.67
2018-05-15T23:09:19.407Z,5.53
2018-05-15T23:11:47.753Z,5.90
2018-05-15T23:14:16.427Z,5.67
2018-05-15T23:16:45.672Z,5.60
2018-05-15T23:19:15.234Z,5.43
2018-05-15T23:21:44.800Z,5.13
2018-05-15T23:24:13.232Z,5.30
2018-05-15T23:26:41.569Z,5.40
2018-05-15T23:29:09.974Z,5.13
2018-05-15T23:31:38.307Z,5.37
2018-05-15T23:34:07.509Z,5.73
2018-05-15T23:36:36.717Z,5.87
2018-05-15T23:39:06.641Z,6.27
2018-05-15T23:41:34.977Z,6.80
2018-05-15T23:44:03.821Z,7.43
2018-05-15T23:46:32.254Z,7.17
2018-05-15T23:49:01.318Z,7.07
2018-05-15T23:51:29.676Z,7.33
2018-05-15T23:53:58.011Z,7.73
2018-05-15T23:56:27.174Z,7.33
2018-05-15T23:58:55.498Z,7.20
